sensor_id;sensor_type;location;lat;lon;timestamp;temperature;humidity
39777;DHT22;25453;48.162;14.510;2024-03-08T00:00:13;6.70;69.40
39777;DHT22;25453;48.162;14.510;2024-03-08T00:02:44;6.70;69.30
39777;DHT22;25453;48.162;14.510;2024-03-08T00:05:12;6.70;69.40
39777;DHT22;25453;48.162;14.510;2024-03-08T00:07:41;6.70;69.30
39777;DHT22;25453;48.162;14.510;2024-03-08T00:10:10;6.70;69.30
39777;DHT22;25453;48.162;14.510;2024-03-08T00:12:44;6.70;69.20
39777;DHT22;25453;48.162;14.510;2024-03-08T00:15:17;6.70;69.30
39777;DHT22;25453;48.162;14.510;2024-03-08T00:17:46;6.70;69.30
39777;DHT22;25453;48.162;14.510;2024-03-08T00:20:15;6.70;68.80
39777;DHT22;25453;48.162;14.510;2024-03-08T00:22:46;6.70;68.50
39777;DHT22;25453;48.162;14.510;2024-03-08T00:25:13;6.70;68.60
39777;DHT22;25453;48.162;14.510;2024-03-08T00:27:41;6.60;68.90
39777;DHT22;25453;48.162;14.510;2024-03-08T00:30:09;6.60;68.60
39777;DHT22;25453;48.162;14.510;2024-03-08T00:32:37;6.60;68.70
39777;DHT22;25453;48.162;14.510;2024-03-08T00:35:05;6.50;68.80
39777;DHT22;25453;48.162;14.510;2024-03-08T00:37:35;6.50;69.10
39777;DHT22;25453;48.162;14.510;2024-03-08T00:40:02;6.50;69.00
39777;DHT22;25453;48.162;14.510;2024-03-08T00:42:29;6.50;69.00
39777;DHT22;25453;48.162;14.510;2024-03-08T00:44:56;6.50;68.80
39777;DHT22;25453;48.162;14.510;2024-03-08T00:47:25;6.40;68.70
39777;DHT22;25453;48.162;14.510;2024-03-08T00:49:54;6.40;68.80
39777;DHT22;25453;48.162;14.510;2024-03-08T00:52:24;6.30;68.90
39777;DHT22;25453;48.162;14.510;2024-03-08T00:54:51;6.30;68.70
39777;DHT22;25453;48.162;14.510;2024-03-08T00:57:18;6.30;68.80
39777;DHT22;25453;48.162;14.510;2024-03-08T00:59:46;6.20;68.90
39777;DHT22;25453;48.162;14.510;2024-03-08T01:02:14;6.20;68.90
39777;DHT22;25453;48.162;14.510;2024-03-08T01:04:41;6.20;68.70
39777;DHT22;25453;48.162;14.510;2024-03-08T01:07:08;6.20;68.90
39777;DHT22;25453;48.162;14.510;2024-03-08T01:09:35;6.10;69.00
39777;DHT22;25453;48.162;14.510;2024-03-08T01:12:03;6.10;68.90
39777;DHT22;25453;48.162;14.510;2024-03-08T01:14:30;6.10;68.90
39777;DHT22;25453;48.162;14.510;2024-03-08T01:16:58;6.10;69.10
39777;DHT22;25453;48.162;14.510;2024-03-08T01:19:26;6.10;68.80
39777;DHT22;25453;48.162;14.510;2024-03-08T01:21:53;6.00;69.00
39777;DHT22;25453;48.162;14.510;2024-03-08T01:24:24;6.00;69.30
39777;DHT22;25453;48.162;14.510;2024-03-08T01:26:57;6.00;69.40
39777;DHT22;25453;48.162;14.510;2024-03-08T01:29:24;6.00;69.50
39777;DHT22;25453;48.162;14.510;2024-03-08T01:31:51;6.10;69.80
39777;DHT22;25453;48.162;14.510;2024-03-08T01:34:19;6.20;69.70
39777;DHT22;25453;48.162;14.510;2024-03-08T01:36:46;6.20;69.30
39777;DHT22;25453;48.162;14.510;2024-03-08T01:39:14;6.10;69.20
39777;DHT22;25453;48.162;14.510;2024-03-08T01:41:41;6.20;68.70
39777;DHT22;25453;48.162;14.510;2024-03-08T01:44:08;6.10;68.30
39777;DHT22;25453;48.162;14.510;2024-03-08T01:46:36;6.00;68.60
39777;DHT22;25453;48.162;14.510;2024-03-08T01:49:03;5.90;68.70
39777;DHT22;25453;48.162;14.510;2024-03-08T01:51:31;5.90;69.00
39777;DHT22;25453;48.162;14.510;2024-03-08T01:54:01;5.90;69.20
39777;DHT22;25453;48.162;14.510;2024-03-08T01:56:29;5.90;69.00
39777;DHT22;25453;48.162;14.510;2024-03-08T01:58:59;5.90;69.00
39777;DHT22;25453;48.162;14.510;2024-03-08T02:01:28;5.80;69.00
39777;DHT22;25453;48.162;14.510;2024-03-08T02:03:56;5.80;69.10
39777;DHT22;25453;48.162;14.510;2024-03-08T02:06:23;5.80;69.00
39777;DHT22;25453;48.162;14.510;2024-03-08T02:08:51;5.70;69.00
39777;DHT22;25453;48.162;14.510;2024-03-08T02:11:19;5.70;69.20
39777;DHT22;25453;48.162;14.510;2024-03-08T02:13:48;5.70;69.60
39777;DHT22;25453;48.162;14.510;2024-03-08T02:16:21;5.80;69.60
39777;DHT22;25453;48.162;14.510;2024-03-08T02:18:49;5.90;69.70
39777;DHT22;25453;48.162;14.510;2024-03-08T02:21:18;5.90;69.40
39777;DHT22;25453;48.162;14.510;2024-03-08T02:23:46;5.90;69.30
39777;DHT22;25453;48.162;14.510;2024-03-08T02:26:13;5.90;69.20
39777;DHT22;25453;48.162;14.510;2024-03-08T02:28:41;5.90;69.00
39777;DHT22;25453;48.162;14.510;2024-03-08T02:31:10;5.90;69.00
39777;DHT22;25453;48.162;14.510;2024-03-08T02:33:39;5.90;69.20
39777;DHT22;25453;48.162;14.510;2024-03-08T02:36:06;5.90;69.20
39777;DHT22;25453;48.162;14.510;2024-03-08T02:38:34;5.90;69.00
39777;DHT22;25453;48.162;14.510;2024-03-08T02:41:01;5.90;69.10
39777;DHT22;25453;48.162;14.510;2024-03-08T02:43:29;5.90;69.00
39777;DHT22;25453;48.162;14.510;2024-03-08T02:45:56;5.90;69.00
39777;DHT22;25453;48.162;14.510;2024-03-08T02:48:23;5.90;68.90
39777;DHT22;25453;48.162;14.510;2024-03-08T02:50:50;5.90;68.80
39777;DHT22;25453;48.162;14.510;2024-03-08T02:53:18;5.90;68.70
39777;DHT22;25453;48.162;14.510;2024-03-08T02:55:46;5.90;68.30
39777;DHT22;25453;48.162;14.510;2024-03-08T02:58:14;5.90;68.50
39777;DHT22;25453;48.162;14.510;2024-03-08T03:00:42;5.80;68.30
39777;DHT22;25453;48.162;14.510;2024-03-08T03:03:12;5.80;68.30
39777;DHT22;25453;48.162;14.510;2024-03-08T03:05:39;5.80;68.50
39777;DHT22;25453;48.162;14.510;2024-03-08T03:08:14;5.80;68.50
39777;DHT22;25453;48.162;14.510;2024-03-08T03:10:45;5.80;68.60
39777;DHT22;25453;48.162;14.510;2024-03-08T03:13:15;5.80;68.00
39777;DHT22;25453;48.162;14.510;2024-03-08T03:15:42;5.70;68.10
39777;DHT22;25453;48.162;14.510;2024-03-08T03:18:09;5.70;68.50
39777;DHT22;25453;48.162;14.510;2024-03-08T03:20:37;5.70;68.70
39777;DHT22;25453;48.162;14.510;2024-03-08T03:23:09;5.60;68.80
39777;DHT22;25453;48.162;14.510;2024-03-08T03:25:41;5.70;69.00
39777;DHT22;25453;48.162;14.510;2024-03-08T03:28:09;5.70;68.90
39777;DHT22;25453;48.162;14.510;2024-03-08T03:30:42;5.80;68.60
39777;DHT22;25453;48.162;14.510;2024-03-08T03:33:09;5.70;68.40
39777;DHT22;25453;48.162;14.510;2024-03-08T03:35:37;5.70;68.10
39777;DHT22;25453;48.162;14.510;2024-03-08T03:38:05;5.60;68.60
39777;DHT22;25453;48.162;14.510;2024-03-08T03:40:39;5.60;68.90
39777;DHT22;25453;48.162;14.510;2024-03-08T03:43:07;5.70;69.30
39777;DHT22;25453;48.162;14.510;2024-03-08T03:45:39;5.80;69.30
39777;DHT22;25453;48.162;14.510;2024-03-08T03:48:07;5.80;69.30
39777;DHT22;25453;48.162;14.510;2024-03-08T03:50:38;5.90;69.10
39777;DHT22;25453;48.162;14.510;2024-03-08T03:53:07;6.00;68.90
39777;DHT22;25453;48.162;14.510;2024-03-08T03:55:37;6.00;68.70
39777;DHT22;25453;48.162;14.510;2024-03-08T03:58:08;6.00;68.60
39777;DHT22;25453;48.162;14.510;2024-03-08T04:00:38;6.00;68.60
39777;DHT22;25453;48.162;14.510;2024-03-08T04:03:06;6.00;68.50
39777;DHT22;25453;48.162;14.510;2024-03-08T04:05:35;6.00;68.40
39777;DHT22;25453;48.162;14.510;2024-03-08T04:08:02;6.00;68.40
39777;DHT22;25453;48.162;14.510;2024-03-08T04:10:30;6.00;68.30
39777;DHT22;25453;48.162;14.510;2024-03-08T04:12:57;6.00;68.20
39777;DHT22;25453;48.162;14.510;2024-03-08T04:15:25;6.00;68.20
39777;DHT22;25453;48.162;14.510;2024-03-08T04:17:52;6.00;68.10
39777;DHT22;25453;48.162;14.510;2024-03-08T04:20:20;6.00;68.10
39777;DHT22;25453;48.162;14.510;2024-03-08T04:22:48;6.00;68.10
39777;DHT22;25453;48.162;14.510;2024-03-08T04:25:17;6.00;68.10
39777;DHT22;25453;48.162;14.510;2024-03-08T04:27:44;6.00;68.20
39777;DHT22;25453;48.162;14.510;2024-03-08T04:30:12;6.00;67.90
39777;DHT22;25453;48.162;14.510;2024-03-08T04:32:40;6.00;68.00
39777;DHT22;25453;48.162;14.510;2024-03-08T04:35:08;6.00;68.20
39777;DHT22;25453;48.162;14.510;2024-03-08T04:37:36;6.00;68.10
39777;DHT22;25453;48.162;14.510;2024-03-08T04:40:03;6.00;67.80
39777;DHT22;25453;48.162;14.510;2024-03-08T04:42:32;6.00;67.80
39777;DHT22;25453;48.162;14.510;2024-03-08T04:45:00;6.00;67.60
39777;DHT22;25453;48.162;14.510;2024-03-08T04:47:27;6.00;67.60
39777;DHT22;25453;48.162;14.510;2024-03-08T04:49:55;5.90;67.90
39777;DHT22;25453;48.162;14.510;2024-03-08T04:52:23;5.90;67.80
39777;DHT22;25453;48.162;14.510;2024-03-08T04:54:52;5.90;67.70
39777;DHT22;25453;48.162;14.510;2024-03-08T04:57:19;5.90;67.30
39777;DHT22;25453;48.162;14.510;2024-03-08T04:59:46;5.80;67.50
39777;DHT22;25453;48.162;14.510;2024-03-08T05:02:14;5.80;67.50
39777;DHT22;25453;48.162;14.510;2024-03-08T05:04:41;5.70;67.40
39777;DHT22;25453;48.162;14.510;2024-03-08T05:07:09;5.70;67.70
39777;DHT22;25453;48.162;14.510;2024-03-08T05:09:37;5.70;67.60
39777;DHT22;25453;48.162;14.510;2024-03-08T05:12:05;5.60;67.80
39777;DHT22;25453;48.162;14.510;2024-03-08T05:14:33;5.60;67.60
39777;DHT22;25453;48.162;14.510;2024-03-08T05:17:02;5.50;67.90
39777;DHT22;25453;48.162;14.510;2024-03-08T05:19:29;5.50;68.10
39777;DHT22;25453;48.162;14.510;2024-03-08T05:22:01;5.50;68.50
39777;DHT22;25453;48.162;14.510;2024-03-08T05:24:28;5.50;68.50
39777;DHT22;25453;48.162;14.510;2024-03-08T05:26:57;5.50;68.50
39777;DHT22;25453;48.162;14.510;2024-03-08T05:29:26;5.50;68.50
39777;DHT22;25453;48.162;14.510;2024-03-08T05:31:54;5.50;68.40
39777;DHT22;25453;48.162;14.510;2024-03-08T05:34:22;5.50;68.40
39777;DHT22;25453;48.162;14.510;2024-03-08T05:36:49;5.50;68.50
39777;DHT22;25453;48.162;14.510;2024-03-08T05:39:18;5.50;68.20
39777;DHT22;25453;48.162;14.510;2024-03-08T05:41:47;5.40;68.10
39777;DHT22;25453;48.162;14.510;2024-03-08T05:44:15;5.40;68.10
39777;DHT22;25453;48.162;14.510;2024-03-08T05:46:44;5.30;68.30
39777;DHT22;25453;48.162;14.510;2024-03-08T05:49:14;5.20;68.60
39777;DHT22;25453;48.162;14.510;2024-03-08T05:51:41;5.20;68.90
39777;DHT22;25453;48.162;14.510;2024-03-08T05:54:11;5.20;69.20
39777;DHT22;25453;48.162;14.510;2024-03-08T05:56:42;5.20;69.20
39777;DHT22;25453;48.162;14.510;2024-03-08T05:59:11;5.20;69.50
39777;DHT22;25453;48.162;14.510;2024-03-08T06:01:39;5.30;69.40
39777;DHT22;25453;48.162;14.510;2024-03-08T06:04:09;5.30;69.20
39777;DHT22;25453;48.162;14.510;2024-03-08T06:06:39;5.30;69.00
39777;DHT22;25453;48.162;14.510;2024-03-08T06:09:07;5.20;69.20
39777;DHT22;25453;48.162;14.510;2024-03-08T06:11:39;5.20;69.50
39777;DHT22;25453;48.162;14.510;2024-03-08T06:14:07;5.20;69.70
39777;DHT22;25453;48.162;14.510;2024-03-08T06:16:34;5.20;69.80
39777;DHT22;25453;48.162;14.510;2024-03-08T06:19:03;5.20;69.80
39777;DHT22;25453;48.162;14.510;2024-03-08T06:21:30;5.20;69.70
39777;DHT22;25453;48.162;14.510;2024-03-08T06:23:59;5.30;69.80
39777;DHT22;25453;48.162;14.510;2024-03-08T06:26:27;5.30;69.80
39777;DHT22;25453;48.162;14.510;2024-03-08T06:28:58;5.30;69.50
39777;DHT22;25453;48.162;14.510;2024-03-08T06:31:26;5.20;69.60
39777;DHT22;25453;48.162;14.510;2024-03-08T06:33:53;5.20;69.90
39777;DHT22;25453;48.162;14.510;2024-03-08T06:36:25;5.30;70.00
39777;DHT22;25453;48.162;14.510;2024-03-08T06:38:52;5.20;70.00
39777;DHT22;25453;48.162;14.510;2024-03-08T06:41:20;5.30;70.00
39777;DHT22;25453;48.162;14.510;2024-03-08T06:43:47;5.30;69.90
39777;DHT22;25453;48.162;14.510;2024-03-08T06:46:25;5.20;70.10
39777;DHT22;25453;48.162;14.510;2024-03-08T06:48:52;5.20;69.90
39777;DHT22;25453;48.162;14.510;2024-03-08T06:51:19;5.20;70.10
39777;DHT22;25453;48.162;14.510;2024-03-08T06:53:47;5.20;70.40
39777;DHT22;25453;48.162;14.510;2024-03-08T06:56:14;5.10;70.50
39777;DHT22;25453;48.162;14.510;2024-03-08T06:58:43;5.10;70.60
39777;DHT22;25453;48.162;14.510;2024-03-08T07:01:13;5.10;70.70
39777;DHT22;25453;48.162;14.510;2024-03-08T07:03:42;5.10;70.80
39777;DHT22;25453;48.162;14.510;2024-03-08T07:06:12;5.10;70.90
39777;DHT22;25453;48.162;14.510;2024-03-08T07:08:39;5.10;71.10
39777;DHT22;25453;48.162;14.510;2024-03-08T07:11:07;5.10;71.20
39777;DHT22;25453;48.162;14.510;2024-03-08T07:13:34;5.10;71.20
39777;DHT22;25453;48.162;14.510;2024-03-08T07:16:01;5.20;71.50
39777;DHT22;25453;48.162;14.510;2024-03-08T07:18:29;5.20;71.50
39777;DHT22;25453;48.162;14.510;2024-03-08T07:20:57;5.30;71.30
39777;DHT22;25453;48.162;14.510;2024-03-08T07:23:25;5.30;71.20
39777;DHT22;25453;48.162;14.510;2024-03-08T07:26:14;5.30;71.20
39777;DHT22;25453;48.162;14.510;2024-03-08T07:28:42;5.30;71.00
39777;DHT22;25453;48.162;14.510;2024-03-08T07:31:09;5.30;71.40
39777;DHT22;25453;48.162;14.510;2024-03-08T07:33:39;5.40;71.40
39777;DHT22;25453;48.162;14.510;2024-03-08T07:36:07;5.40;71.60
39777;DHT22;25453;48.162;14.510;2024-03-08T07:38:35;5.50;71.60
39777;DHT22;25453;48.162;14.510;2024-03-08T07:41:03;5.50;71.50
39777;DHT22;25453;48.162;14.510;2024-03-08T07:43:31;5.60;71.20
39777;DHT22;25453;48.162;14.510;2024-03-08T07:46:00;5.60;71.10
39777;DHT22;25453;48.162;14.510;2024-03-08T07:48:27;5.60;71.20
39777;DHT22;25453;48.162;14.510;2024-03-08T07:50:55;5.70;71.00
39777;DHT22;25453;48.162;14.510;2024-03-08T07:53:23;5.80;71.00
39777;DHT22;25453;48.162;14.510;2024-03-08T07:55:53;5.80;70.10
39777;DHT22;25453;48.162;14.510;2024-03-08T07:58:21;5.90;70.00
39777;DHT22;25453;48.162;14.510;2024-03-08T08:00:48;5.90;69.50
39777;DHT22;25453;48.162;14.510;2024-03-08T08:03:15;5.90;69.70
39777;DHT22;25453;48.162;14.510;2024-03-08T08:05:45;6.00;69.50
39777;DHT22;25453;48.162;14.510;2024-03-08T08:08:12;6.00;69.30
39777;DHT22;25453;48.162;14.510;2024-03-08T08:10:40;6.00;69.00
39777;DHT22;25453;48.162;14.510;2024-03-08T08:13:07;6.10;68.40
39777;DHT22;25453;48.162;14.510;2024-03-08T08:15:34;6.10;68.80
39777;DHT22;25453;48.162;14.510;2024-03-08T08:18:02;6.20;69.30
39777;DHT22;25453;48.162;14.510;2024-03-08T08:20:33;6.30;69.30
39777;DHT22;25453;48.162;14.510;2024-03-08T08:23:00;6.40;69.30
39777;DHT22;25453;48.162;14.510;2024-03-08T08:25:27;6.60;68.10
39777;DHT22;25453;48.162;14.510;2024-03-08T08:27:55;6.70;67.90
39777;DHT22;25453;48.162;14.510;2024-03-08T08:30:22;6.70;67.10
39777;DHT22;25453;48.162;14.510;2024-03-08T08:32:49;6.80;66.70
39777;DHT22;25453;48.162;14.510;2024-03-08T08:35:16;6.80;66.90
39777;DHT22;25453;48.162;14.510;2024-03-08T08:37:45;6.80;67.10
39777;DHT22;25453;48.162;14.510;2024-03-08T08:40:13;6.90;67.10
39777;DHT22;25453;48.162;14.510;2024-03-08T08:42:45;7.00;67.20
39777;DHT22;25453;48.162;14.510;2024-03-08T08:45:16;7.10;67.20
39777;DHT22;25453;48.162;14.510;2024-03-08T08:47:51;7.20;67.20
39777;DHT22;25453;48.162;14.510;2024-03-08T08:50:18;7.40;66.30
39777;DHT22;25453;48.162;14.510;2024-03-08T08:52:51;7.50;66.00
39777;DHT22;25453;48.162;14.510;2024-03-08T08:55:18;7.50;66.30
39777;DHT22;25453;48.162;14.510;2024-03-08T08:57:48;7.70;65.70
39777;DHT22;25453;48.162;14.510;2024-03-08T09:00:16;7.80;66.00
39777;DHT22;25453;48.162;14.510;2024-03-08T09:02:44;7.90;65.80
39777;DHT22;25453;48.162;14.510;2024-03-08T09:05:11;8.10;65.20
39777;DHT22;25453;48.162;14.510;2024-03-08T09:07:39;8.20;65.70
39777;DHT22;25453;48.162;14.510;2024-03-08T09:10:07;8.40;65.00
39777;DHT22;25453;48.162;14.510;2024-03-08T09:12:39;8.50;65.20
39777;DHT22;25453;48.162;14.510;2024-03-08T09:15:07;8.70;64.60
39777;DHT22;25453;48.162;14.510;2024-03-08T09:17:39;8.90;64.10
39777;DHT22;25453;48.162;14.510;2024-03-08T09:20:07;9.10;62.90
39777;DHT22;25453;48.162;14.510;2024-03-08T09:22:45;9.20;63.20
39777;DHT22;25453;48.162;14.510;2024-03-08T09:25:13;9.40;63.20
39777;DHT22;25453;48.162;14.510;2024-03-08T09:27:41;9.60;61.10
39777;DHT22;25453;48.162;14.510;2024-03-08T09:30:08;9.80;60.10
39777;DHT22;25453;48.162;14.510;2024-03-08T09:32:36;9.80;61.30
39777;DHT22;25453;48.162;14.510;2024-03-08T09:35:05;10.00;61.90
39777;DHT22;25453;48.162;14.510;2024-03-08T09:37:35;10.30;61.30
39777;DHT22;25453;48.162;14.510;2024-03-08T09:40:04;10.50;60.00
39777;DHT22;25453;48.162;14.510;2024-03-08T09:42:31;10.60;59.70
39777;DHT22;25453;48.162;14.510;2024-03-08T09:44:59;10.80;58.30
39777;DHT22;25453;48.162;14.510;2024-03-08T09:47:28;10.90;57.70
39777;DHT22;25453;48.162;14.510;2024-03-08T09:50:01;10.90;57.90
39777;DHT22;25453;48.162;14.510;2024-03-08T09:52:29;11.00;58.60
39777;DHT22;25453;48.162;14.510;2024-03-08T09:54:58;11.10;56.30
39777;DHT22;25453;48.162;14.510;2024-03-08T09:57:27;11.20;56.00
39777;DHT22;25453;48.162;14.510;2024-03-08T09:59:55;11.20;56.50
39777;DHT22;25453;48.162;14.510;2024-03-08T10:02:23;11.20;54.60
39777;DHT22;25453;48.162;14.510;2024-03-08T10:04:51;11.20;55.20
39777;DHT22;25453;48.162;14.510;2024-03-08T10:07:20;11.20;56.40
39777;DHT22;25453;48.162;14.510;2024-03-08T10:09:47;11.30;56.30
39777;DHT22;25453;48.162;14.510;2024-03-08T10:12:17;11.40;55.50
39777;DHT22;25453;48.162;14.510;2024-03-08T10:14:46;11.40;55.70
39777;DHT22;25453;48.162;14.510;2024-03-08T10:17:14;11.40;55.20
39777;DHT22;25453;48.162;14.510;2024-03-08T10:19:50;11.50;56.10
39777;DHT22;25453;48.162;14.510;2024-03-08T10:22:19;11.60;55.30
39777;DHT22;25453;48.162;14.510;2024-03-08T10:24:47;11.60;54.80
39777;DHT22;25453;48.162;14.510;2024-03-08T10:27:17;11.60;54.90
39777;DHT22;25453;48.162;14.510;2024-03-08T10:29:48;11.60;55.90
39777;DHT22;25453;48.162;14.510;2024-03-08T10:32:15;11.70;56.20
39777;DHT22;25453;48.162;14.510;2024-03-08T10:34:42;11.90;54.70
39777;DHT22;25453;48.162;14.510;2024-03-08T10:37:15;11.90;53.00
39777;DHT22;25453;48.162;14.510;2024-03-08T10:40:10;11.70;53.70
39777;DHT22;25453;48.162;14.510;2024-03-08T10:42:55;11.60;53.50
39777;DHT22;25453;48.162;14.510;2024-03-08T10:45:36;11.50;55.00
39777;DHT22;25453;48.162;14.510;2024-03-08T10:50:38;11.60;54.30
39777;DHT22;25453;48.162;14.510;2024-03-08T10:53:06;11.60;53.80
39777;DHT22;25453;48.162;14.510;2024-03-08T10:55:40;11.60;55.00
39777;DHT22;25453;48.162;14.510;2024-03-08T10:58:08;11.70;55.50
39777;DHT22;25453;48.162;14.510;2024-03-08T11:00:36;11.80;55.50
39777;DHT22;25453;48.162;14.510;2024-03-08T11:03:04;12.00;55.10
39777;DHT22;25453;48.162;14.510;2024-03-08T11:05:41;12.10;54.80
39777;DHT22;25453;48.162;14.510;2024-03-08T11:08:18;12.20;54.90
39777;DHT22;25453;48.162;14.510;2024-03-08T11:10:53;12.40;55.30
39777;DHT22;25453;48.162;14.510;2024-03-08T11:13:40;12.50;54.40
39777;DHT22;25453;48.162;14.510;2024-03-08T11:16:12;12.60;54.40
39777;DHT22;25453;48.162;14.510;2024-03-08T11:21:38;12.80;53.90
39777;DHT22;25453;48.162;14.510;2024-03-08T11:24:11;12.90;54.20
39777;DHT22;25453;48.162;14.510;2024-03-08T11:26:42;13.00;52.80
39777;DHT22;25453;48.162;14.510;2024-03-08T11:34:42;13.30;52.20
39777;DHT22;25453;48.162;14.510;2024-03-08T11:37:14;13.20;52.70
39777;DHT22;25453;48.162;14.510;2024-03-08T11:39:49;13.30;52.60
39777;DHT22;25453;48.162;14.510;2024-03-08T11:42:18;13.20;51.20
39777;DHT22;25453;48.162;14.510;2024-03-08T11:44:47;13.10;51.50
39777;DHT22;25453;48.162;14.510;2024-03-08T11:47:15;13.00;52.00
39777;DHT22;25453;48.162;14.510;2024-03-08T11:49:44;13.00;53.00
39777;DHT22;25453;48.162;14.510;2024-03-08T11:52:12;13.00;52.30
39777;DHT22;25453;48.162;14.510;2024-03-08T11:54:41;13.10;52.40
39777;DHT22;25453;48.162;14.510;2024-03-08T11:57:08;13.10;52.60
39777;DHT22;25453;48.162;14.510;2024-03-08T11:59:36;13.20;53.10
39777;DHT22;25453;48.162;14.510;2024-03-08T12:02:05;13.30;52.40
39777;DHT22;25453;48.162;14.510;2024-03-08T12:04:33;13.30;52.10
39777;DHT22;25453;48.162;14.510;2024-03-08T12:07:03;13.40;51.50
39777;DHT22;25453;48.162;14.510;2024-03-08T12:09:36;13.30;51.90
39777;DHT22;25453;48.162;14.510;2024-03-08T12:12:05;13.20;51.30
39777;DHT22;25453;48.162;14.510;2024-03-08T12:14:34;13.10;51.90
39777;DHT22;25453;48.162;14.510;2024-03-08T12:17:02;13.10;52.00
39777;DHT22;25453;48.162;14.510;2024-03-08T12:19:30;13.10;52.00
39777;DHT22;25453;48.162;14.510;2024-03-08T12:22:08;13.20;51.70
39777;DHT22;25453;48.162;14.510;2024-03-08T12:24:37;13.20;50.50
39777;DHT22;25453;48.162;14.510;2024-03-08T12:27:18;13.00;50.50
39777;DHT22;25453;48.162;14.510;2024-03-08T12:29:46;12.90;50.80
39777;DHT22;25453;48.162;14.510;2024-03-08T12:32:14;12.80;50.90
39777;DHT22;25453;48.162;14.510;2024-03-08T12:34:42;12.80;51.70
39777;DHT22;25453;48.162;14.510;2024-03-08T12:37:12;12.70;51.60
39777;DHT22;25453;48.162;14.510;2024-03-08T12:39:40;12.70;51.40
39777;DHT22;25453;48.162;14.510;2024-03-08T12:42:12;12.60;51.90
39777;DHT22;25453;48.162;14.510;2024-03-08T12:44:39;12.60;51.60
39777;DHT22;25453;48.162;14.510;2024-03-08T12:47:10;12.60;52.30
39777;DHT22;25453;48.162;14.510;2024-03-08T12:49:38;12.60;52.50
39777;DHT22;25453;48.162;14.510;2024-03-08T12:52:10;12.70;52.80
39777;DHT22;25453;48.162;14.510;2024-03-08T12:54:37;12.80;52.80
39777;DHT22;25453;48.162;14.510;2024-03-08T12:57:04;12.90;53.00
39777;DHT22;25453;48.162;14.510;2024-03-08T12:59:32;13.00;52.10
39777;DHT22;25453;48.162;14.510;2024-03-08T13:01:59;13.00;52.60
39777;DHT22;25453;48.162;14.510;2024-03-08T13:04:27;13.10;52.50
39777;DHT22;25453;48.162;14.510;2024-03-08T13:06:54;13.20;52.10
39777;DHT22;25453;48.162;14.510;2024-03-08T13:09:22;13.20;51.10
39777;DHT22;25453;48.162;14.510;2024-03-08T13:11:49;13.10;50.80
39777;DHT22;25453;48.162;14.510;2024-03-08T13:14:17;13.00;50.60
39777;DHT22;25453;48.162;14.510;2024-03-08T13:16:44;12.90;50.50
39777;DHT22;25453;48.162;14.510;2024-03-08T13:19:15;12.80;50.80
39777;DHT22;25453;48.162;14.510;2024-03-08T13:21:43;12.70;51.20
39777;DHT22;25453;48.162;14.510;2024-03-08T13:24:16;12.70;51.40
39777;DHT22;25453;48.162;14.510;2024-03-08T13:26:47;12.60;51.20
39777;DHT22;25453;48.162;14.510;2024-03-08T13:29:14;12.50;51.50
39777;DHT22;25453;48.162;14.510;2024-03-08T13:31:41;12.50;52.20
39777;DHT22;25453;48.162;14.510;2024-03-08T13:34:09;12.40;52.30
39777;DHT22;25453;48.162;14.510;2024-03-08T13:36:38;12.40;52.80
39777;DHT22;25453;48.162;14.510;2024-03-08T13:39:11;12.40;52.70
39777;DHT22;25453;48.162;14.510;2024-03-08T13:41:48;12.50;53.00
39777;DHT22;25453;48.162;14.510;2024-03-08T13:44:15;12.50;52.80
39777;DHT22;25453;48.162;14.510;2024-03-08T13:46:47;12.50;53.00
39777;DHT22;25453;48.162;14.510;2024-03-08T13:49:19;12.50;52.70
39777;DHT22;25453;48.162;14.510;2024-03-08T13:51:46;12.50;52.70
39777;DHT22;25453;48.162;14.510;2024-03-08T13:54:13;12.50;52.30
39777;DHT22;25453;48.162;14.510;2024-03-08T13:56:43;12.50;51.50
39777;DHT22;25453;48.162;14.510;2024-03-08T13:59:12;12.40;52.40
39777;DHT22;25453;48.162;14.510;2024-03-08T14:01:40;12.40;52.10
39777;DHT22;25453;48.162;14.510;2024-03-08T14:04:07;12.40;51.50
39777;DHT22;25453;48.162;14.510;2024-03-08T14:06:35;12.30;51.90
39777;DHT22;25453;48.162;14.510;2024-03-08T14:09:02;12.10;52.40
39777;DHT22;25453;48.162;14.510;2024-03-08T14:11:30;12.10;52.70
39777;DHT22;25453;48.162;14.510;2024-03-08T14:13:57;12.10;53.10
39777;DHT22;25453;48.162;14.510;2024-03-08T14:16:25;12.10;52.40
39777;DHT22;25453;48.162;14.510;2024-03-08T14:18:53;12.00;52.20
39777;DHT22;25453;48.162;14.510;2024-03-08T14:21:20;11.90;52.40
39777;DHT22;25453;48.162;14.510;2024-03-08T14:23:49;11.90;53.40
39777;DHT22;25453;48.162;14.510;2024-03-08T14:26:17;11.90;53.60
39777;DHT22;25453;48.162;14.510;2024-03-08T14:28:44;11.90;53.20
39777;DHT22;25453;48.162;14.510;2024-03-08T14:31:13;11.90;52.90
39777;DHT22;25453;48.162;14.510;2024-03-08T14:33:40;11.90;53.20
39777;DHT22;25453;48.162;14.510;2024-03-08T14:36:09;11.80;53.40
39777;DHT22;25453;48.162;14.510;2024-03-08T14:38:41;11.80;53.70
39777;DHT22;25453;48.162;14.510;2024-03-08T14:41:08;11.80;53.50
39777;DHT22;25453;48.162;14.510;2024-03-08T14:43:36;11.80;53.80
39777;DHT22;25453;48.162;14.510;2024-03-08T14:46:03;11.80;53.80
39777;DHT22;25453;48.162;14.510;2024-03-08T14:48:31;11.80;53.10
39777;DHT22;25453;48.162;14.510;2024-03-08T14:50:58;11.80;52.50
39777;DHT22;25453;48.162;14.510;2024-03-08T14:53:26;11.70;52.80
39777;DHT22;25453;48.162;14.510;2024-03-08T14:55:54;11.70;52.80
39777;DHT22;25453;48.162;14.510;2024-03-08T14:58:22;11.60;52.50
39777;DHT22;25453;48.162;14.510;2024-03-08T15:00:51;11.60;53.00
39777;DHT22;25453;48.162;14.510;2024-03-08T15:03:22;11.50;53.40
39777;DHT22;25453;48.162;14.510;2024-03-08T15:05:53;11.50;53.50
39777;DHT22;25453;48.162;14.510;2024-03-08T15:08:20;11.50;53.50
39777;DHT22;25453;48.162;14.510;2024-03-08T15:10:50;11.50;53.00
39777;DHT22;25453;48.162;14.510;2024-03-08T15:13:22;11.40;53.30
39777;DHT22;25453;48.162;14.510;2024-03-08T15:15:50;11.40;53.40
39777;DHT22;25453;48.162;14.510;2024-03-08T15:18:25;11.30;53.40
39777;DHT22;25453;48.162;14.510;2024-03-08T15:20:53;11.30;53.80
39777;DHT22;25453;48.162;14.510;2024-03-08T15:23:20;11.30;53.60
39777;DHT22;25453;48.162;14.510;2024-03-08T15:25:48;11.20;54.00
39777;DHT22;25453;48.162;14.510;2024-03-08T15:28:18;11.20;54.30
39777;DHT22;25453;48.162;14.510;2024-03-08T15:30:48;11.20;54.40
39777;DHT22;25453;48.162;14.510;2024-03-08T15:33:21;11.20;54.40
39777;DHT22;25453;48.162;14.510;2024-03-08T15:35:54;11.10;54.40
39777;DHT22;25453;48.162;14.510;2024-03-08T15:38:47;11.10;54.40
39777;DHT22;25453;48.162;14.510;2024-03-08T15:41:19;11.00;54.40
39777;DHT22;25453;48.162;14.510;2024-03-08T15:43:48;11.00;54.60
39777;DHT22;25453;48.162;14.510;2024-03-08T15:46:15;10.90;54.60